e-Mail: Password: Lost your password? Click here. - Register a new user

c h a v e z j u a r e z . c o m

Weather - Tiempo - Wetter - Temps

METAR DATA MMMX (Mexico City)

Mexico City / Licenci, Mexico (MMMX) 19-26N 099-06W
May 28, 2020 - 12:47 PM EDT / 2020.05.28 1647 UTC
Wind: from the NNW (340 degrees) at 7 MPH (6 KT):0
Visibility: 5 mile(s):0
Sky conditions: clear
Temperature: 75 F (24 C)
Dew Point: 42 F (6 C)
Relative Humidity: 31%
Pressure (altimeter): 30.35 in. Hg (1027 hPa)
ob: MMMX 281647Z 34006KT 5SM SKC 24/06 A3035 NOSIG RMK HZY ISOL CU
cycle: 17

Mexico City

St. Prex




Current weather alarms for Switzerland


www.wetteralarm.ch